createdAt,value
2022-12-17T00:02:44.823Z,2.60
2022-12-17T00:05:30.458Z,2.50
2022-12-17T00:08:21.953Z,2.50
2022-12-17T00:11:09.739Z,2.50
2022-12-17T00:14:04.340Z,2.50
2022-12-17T00:16:53.836Z,2.50
2022-12-17T00:19:39.317Z,2.50
2022-12-17T00:22:24.622Z,2.50
2022-12-17T00:25:12.586Z,2.50
2022-12-17T00:27:58.208Z,2.50
2022-12-17T00:30:46.378Z,2.50
2022-12-17T00:33:32.481Z,2.50
2022-12-17T00:36:20.445Z,2.50
2022-12-17T00:39:11.287Z,2.50
2022-12-17T00:41:56.942Z,2.50
2022-12-17T00:44:42.339Z,2.50
2022-12-17T00:47:27.869Z,2.50
2022-12-17T00:50:16.234Z,2.50
2022-12-17T00:53:01.855Z,2.50
2022-12-17T00:55:47.181Z,2.40
2022-12-17T00:58:32.511Z,2.50
2022-12-17T01:01:19.318Z,2.50
2022-12-17T01:04:05.731Z,2.50
2022-12-17T01:06:57.291Z,2.50
2022-12-17T01:09:42.625Z,2.50
2022-12-17T01:12:30.232Z,2.50
2022-12-17T01:15:15.970Z,2.50
2022-12-17T01:18:01.322Z,2.50
2022-12-17T01:20:46.962Z,2.50
2022-12-17T01:23:35.674Z,2.50
2022-12-17T01:26:23.760Z,2.50
2022-12-17T01:29:09.356Z,2.50
2022-12-17T01:32:08.234Z,2.50
2022-12-17T01:34:54.081Z,2.40
2022-12-17T01:37:41.451Z,2.50
2022-12-17T01:40:30.379Z,2.50
2022-12-17T01:43:15.832Z,2.40
2022-12-17T01:49:15.381Z,2.40
2022-12-17T01:52:01.201Z,2.50
2022-12-17T01:54:55.186Z,2.40
2022-12-17T01:57:40.891Z,2.50
2022-12-17T02:00:32.363Z,2.40
2022-12-17T02:03:18.921Z,2.40
2022-12-17T02:06:38.938Z,2.50
2022-12-17T02:09:36.869Z,2.40
2022-12-17T02:12:49.346Z,2.40
2022-12-17T02:16:22.188Z,2.40
2022-12-17T02:19:20.882Z,2.40
2022-12-17T02:22:11.069Z,2.50
2022-12-17T02:25:17.540Z,2.40
2022-12-17T02:28:23.261Z,2.50
2022-12-17T02:31:09.439Z,2.40
2022-12-17T02:33:55.190Z,2.40
2022-12-17T02:36:40.862Z,2.40
2022-12-17T02:39:26.108Z,2.40
2022-12-17T02:42:14.703Z,2.40
2022-12-17T02:45:04.810Z,2.40
2022-12-17T02:47:50.453Z,2.40
2022-12-17T02:50:36.342Z,2.40
2022-12-17T02:53:28.738Z,2.40
2022-12-17T02:56:19.228Z,2.50
2022-12-17T02:59:05.123Z,2.40
2022-12-17T03:01:59.324Z,2.40
2022-12-17T03:04:45.667Z,2.40
2022-12-17T03:07:33.182Z,2.40
2022-12-17T03:10:21.009Z,2.40
2022-12-17T03:13:09.403Z,2.40
2022-12-17T03:15:58.663Z,2.40
2022-12-17T03:18:56.122Z,2.40
2022-12-17T03:21:42.045Z,2.40
2022-12-17T03:24:30.442Z,2.40
2022-12-17T03:27:15.701Z,2.40
2022-12-17T03:30:01.005Z,2.40
2022-12-17T03:32:46.764Z,2.40
2022-12-17T03:35:32.452Z,2.40
2022-12-17T03:38:20.114Z,2.40
2022-12-17T03:41:16.829Z,2.40
2022-12-17T03:44:04.921Z,2.40
2022-12-17T03:46:50.596Z,2.40
2022-12-17T03:49:36.045Z,2.40
2022-12-17T03:52:24.501Z,2.40
2022-12-17T03:55:12.384Z,2.40
2022-12-17T03:58:00.958Z,2.40
2022-12-17T04:00:51.680Z,2.40
2022-12-17T04:03:37.766Z,2.30
2022-12-17T04:06:23.345Z,2.30
2022-12-17T04:09:08.575Z,2.30
2022-12-17T04:11:53.758Z,2.30
2022-12-17T04:14:42.331Z,2.30
2022-12-17T04:17:27.755Z,2.30
2022-12-17T04:20:13.439Z,2.30
2022-12-17T04:23:18.873Z,2.30
2022-12-17T04:26:04.349Z,2.30
2022-12-17T04:28:49.625Z,2.30
2022-12-17T04:31:35.166Z,2.30
2022-12-17T04:34:20.703Z,2.30
2022-12-17T04:37:07.020Z,2.30
2022-12-17T04:40:36.317Z,2.30
2022-12-17T04:43:32.756Z,2.20
2022-12-17T04:46:18.315Z,2.20
2022-12-17T04:49:06.622Z,2.20
2022-12-17T04:51:52.060Z,2.20
2022-12-17T04:54:40.503Z,2.20
2022-12-17T04:57:25.778Z,2.20
2022-12-17T05:00:12.003Z,2.20
2022-12-17T05:03:00.463Z,2.20
2022-12-17T05:05:48.688Z,2.20
2022-12-17T05:08:38.249Z,2.20
2022-12-17T05:11:43.087Z,2.20
2022-12-17T05:14:28.918Z,2.10
2022-12-17T05:17:17.366Z,2.10
2022-12-17T05:20:02.951Z,2.10
2022-12-17T05:22:48.399Z,2.10
2022-12-17T05:25:36.462Z,2.10
2022-12-17T05:28:21.862Z,2.10
2022-12-17T05:31:12.740Z,2.10
2022-12-17T05:33:58.756Z,2.10
2022-12-17T05:36:49.612Z,2.00
2022-12-17T05:39:35.285Z,2.00
2022-12-17T05:42:40.650Z,2.00
2022-12-17T05:45:26.253Z,2.00
2022-12-17T05:48:16.529Z,2.00
2022-12-17T05:51:01.964Z,2.00
2022-12-17T05:53:47.323Z,1.90
2022-12-17T05:56:32.614Z,2.00
2022-12-17T05:59:18.979Z,1.90
2022-12-17T06:02:13.490Z,1.90
2022-12-17T06:05:02.411Z,1.90
2022-12-17T06:07:51.528Z,1.90
2022-12-17T06:10:37.013Z,1.90
2022-12-17T06:13:27.787Z,1.90
2022-12-17T06:16:13.386Z,1.80
2022-12-17T06:19:01.894Z,1.80
2022-12-17T06:22:07.279Z,1.80
2022-12-17T06:24:52.704Z,1.80
2022-12-17T06:27:38.166Z,1.80
2022-12-17T06:30:23.840Z,1.80
2022-12-17T06:33:09.355Z,1.80
2022-12-17T06:35:54.507Z,1.70
2022-12-17T06:38:39.833Z,1.80
2022-12-17T06:41:28.287Z,1.70
2022-12-17T06:44:14.241Z,1.70
2022-12-17T06:46:59.570Z,1.70
2022-12-17T06:49:45.137Z,1.70
2022-12-17T06:52:31.172Z,1.70
2022-12-17T06:55:16.850Z,1.60
2022-12-17T06:58:02.310Z,1.70
2022-12-17T07:00:50.739Z,1.60
2022-12-17T07:03:36.942Z,1.60
2022-12-17T07:06:29.155Z,1.60
2022-12-17T07:09:14.532Z,1.60
2022-12-17T07:12:00.206Z,1.60
2022-12-17T07:14:45.892Z,1.60
2022-12-17T07:17:42.502Z,1.50
2022-12-17T07:20:40.097Z,1.50
2022-12-17T07:23:25.655Z,1.50
2022-12-17T07:26:10.845Z,1.50
2022-12-17T07:28:56.342Z,1.50
2022-12-17T07:31:51.899Z,1.50
2022-12-17T07:34:39.819Z,1.50
2022-12-17T07:37:33.024Z,1.50
2022-12-17T07:40:18.689Z,1.50
2022-12-17T07:43:07.942Z,1.40
2022-12-17T07:45:56.272Z,1.50
2022-12-17T07:48:41.471Z,1.40
2022-12-17T07:51:26.807Z,1.40
2022-12-17T07:54:20.562Z,1.40
2022-12-17T07:57:16.209Z,1.40
2022-12-17T08:00:02.335Z,1.40
2022-12-17T08:02:50.659Z,1.40
2022-12-17T08:05:38.588Z,1.30
2022-12-17T08:08:31.480Z,1.30
2022-12-17T08:11:17.467Z,1.30
2022-12-17T08:14:08.730Z,1.30
2022-12-17T08:16:54.496Z,1.30
2022-12-17T08:19:40.018Z,1.30
2022-12-17T08:22:32.667Z,1.30
2022-12-17T08:25:27.691Z,1.30
2022-12-17T08:28:48.548Z,1.30
2022-12-17T08:31:42.653Z,1.30
2022-12-17T08:34:27.879Z,1.30
2022-12-17T08:37:20.602Z,1.30
2022-12-17T08:40:05.989Z,1.20
2022-12-17T08:42:54.463Z,1.20
2022-12-17T08:45:44.304Z,1.20
2022-12-17T08:48:30.078Z,1.20
2022-12-17T08:51:15.454Z,1.20
2022-12-17T08:54:00.898Z,1.20
2022-12-17T08:56:49.158Z,1.20
2022-12-17T08:59:34.572Z,1.10
2022-12-17T09:02:23.098Z,1.10
2022-12-17T09:05:11.518Z,1.20
2022-12-17T09:07:56.994Z,1.20
2022-12-17T09:10:42.422Z,1.10
2022-12-17T09:13:30.601Z,1.10
2022-12-17T09:16:18.659Z,1.10
2022-12-17T09:19:03.958Z,1.10
2022-12-17T09:21:50.632Z,1.10
2022-12-17T09:24:35.704Z,1.10
2022-12-17T09:27:20.976Z,1.10
2022-12-17T09:30:06.172Z,1.10
2022-12-17T09:32:51.566Z,1.10
2022-12-17T09:35:37.006Z,1.10
2022-12-17T09:38:22.127Z,1.10
2022-12-17T09:41:16.816Z,1.10
2022-12-17T09:44:15.487Z,1.20
2022-12-17T09:47:38.950Z,1.20
2022-12-17T09:50:31.987Z,1.20
2022-12-17T09:53:23.544Z,1.20
2022-12-17T09:56:11.225Z,1.20
2022-12-17T09:58:58.533Z,1.20
2022-12-17T10:01:47.754Z,1.20
2022-12-17T10:05:00.094Z,1.20
2022-12-17T10:07:52.660Z,1.20
2022-12-17T10:10:45.092Z,1.20
2022-12-17T10:13:39.280Z,1.20
2022-12-17T10:16:57.838Z,1.30
2022-12-17T10:19:49.707Z,1.30
2022-12-17T10:22:39.356Z,1.30
2022-12-17T10:25:57.519Z,1.30
2022-12-17T10:28:43.944Z,1.30
2022-12-17T10:31:41.521Z,1.30
2022-12-17T10:34:38.626Z,1.30
2022-12-17T10:37:25.297Z,1.30
2022-12-17T10:40:16.934Z,1.40
2022-12-17T10:43:06.162Z,1.40
2022-12-17T10:45:55.216Z,1.40
2022-12-17T10:48:52.135Z,1.40
2022-12-17T10:51:51.718Z,1.50
2022-12-17T10:54:50.258Z,1.50
2022-12-17T10:58:06.945Z,1.50
2022-12-17T11:00:55.236Z,1.50
2022-12-17T11:04:17.236Z,1.60
2022-12-17T11:07:18.086Z,1.60
2022-12-17T11:10:09.856Z,1.60
2022-12-17T11:12:58.417Z,1.70
2022-12-17T11:16:01.493Z,1.70
2022-12-17T11:19:28.239Z,1.70
2022-12-17T11:22:21.937Z,1.70
2022-12-17T11:25:24.196Z,1.70
2022-12-17T11:28:30.973Z,1.80
2022-12-17T11:31:31.444Z,1.80
2022-12-17T11:34:33.693Z,1.80
2022-12-17T11:37:39.876Z,1.80
2022-12-17T11:40:59.449Z,1.90
2022-12-17T11:43:55.677Z,1.90
2022-12-17T11:46:55.166Z,1.90
2022-12-17T11:50:08.654Z,1.90
2022-12-17T11:53:22.946Z,2.00
2022-12-17T11:56:29.279Z,2.00
2022-12-17T11:59:26.292Z,2.10
2022-12-17T12:02:30.917Z,2.10
2022-12-17T12:05:24.658Z,2.20
2022-12-17T12:08:42.552Z,2.20
2022-12-17T12:11:53.418Z,2.30
2022-12-17T12:14:54.956Z,2.30
2022-12-17T12:18:19.312Z,2.40
2022-12-17T12:21:32.406Z,2.50
2022-12-17T12:24:58.859Z,2.50
2022-12-17T12:27:58.427Z,2.60
2022-12-17T12:30:54.234Z,2.70
2022-12-17T12:34:02.689Z,2.80
2022-12-17T12:36:48.014Z,2.90
2022-12-17T12:39:38.619Z,2.90
2022-12-17T12:42:54.723Z,3.00
2022-12-17T12:46:16.192Z,3.10
2022-12-17T12:49:03.783Z,3.20
2022-12-17T12:51:53.365Z,3.30
2022-12-17T12:55:09.854Z,3.40
2022-12-17T12:57:59.616Z,3.40
2022-12-17T13:01:13.631Z,3.50
2022-12-17T13:04:01.945Z,3.60
2022-12-17T13:06:51.003Z,3.70
2022-12-17T13:09:23.747Z,3.80
2022-12-17T13:11:56.134Z,3.80
2022-12-17T13:15:07.294Z,3.90
2022-12-17T13:17:37.945Z,3.90
2022-12-17T13:20:29.983Z,3.90
2022-12-17T13:23:14.834Z,4.00
2022-12-17T13:25:42.345Z,4.00
2022-12-17T13:28:32.396Z,4.00
2022-12-17T13:31:05.313Z,4.00
2022-12-17T13:34:04.610Z,4.10
2022-12-17T13:37:13.097Z,4.10
2022-12-17T13:40:13.526Z,4.10
2022-12-17T13:42:40.278Z,4.10
2022-12-17T13:45:07.405Z,4.10
2022-12-17T13:47:36.068Z,4.10
2022-12-17T13:50:33.915Z,4.10
2022-12-17T13:53:23.283Z,4.10
2022-12-17T13:55:54.727Z,4.10
2022-12-17T13:58:24.476Z,4.20
2022-12-17T14:00:51.520Z,4.20
2022-12-17T14:03:37.144Z,4.20
2022-12-17T14:06:11.665Z,4.20
2022-12-17T14:08:40.002Z,4.30
2022-12-17T14:11:25.852Z,4.30
2022-12-17T14:14:00.972Z,4.30
2022-12-17T14:16:28.113Z,4.30
2022-12-17T14:18:57.397Z,4.40
2022-12-17T14:21:34.291Z,4.50
2022-12-17T14:24:05.273Z,4.50
